sensor_id;sensor_type;location;lat;lon;timestamp;pressure;altitude;pressure_sealevel;temperature;humidity
9139;BME280;4604;48.616;9.548;2023-06-22T00:01:12;96925.16;;;22.02;95.22
9139;BME280;4604;48.616;9.548;2023-06-22T00:03:39;96936.69;;;22.09;96.11
9139;BME280;4604;48.616;9.548;2023-06-22T00:06:05;96939.19;;;22.04;96.25
9139;BME280;4604;48.616;9.548;2023-06-22T00:08:32;96936.94;;;22.01;96.70
9139;BME280;4604;48.616;9.548;2023-06-22T00:10:59;96936.50;;;22.04;95.73
9139;BME280;4604;48.616;9.548;2023-06-22T00:13:27;96937.31;;;22.11;94.07
9139;BME280;4604;48.616;9.548;2023-06-22T00:15:54;96931.22;;;22.42;90.45
9139;BME280;4604;48.616;9.548;2023-06-22T00:18:20;96929.41;;;22.36;91.34
9139;BME280;4604;48.616;9.548;2023-06-22T00:20:47;96933.09;;;22.35;90.58
9139;BME280;4604;48.616;9.548;2023-06-22T00:23:13;96929.84;;;22.27;90.88
9139;BME280;4604;48.616;9.548;2023-06-22T00:25:42;96924.03;;;22.30;90.65
9139;BME280;4604;48.616;9.548;2023-06-22T00:28:09;96932.91;;;22.37;89.52
9139;BME280;4604;48.616;9.548;2023-06-22T00:30:37;96936.69;;;22.22;91.08
9139;BME280;4604;48.616;9.548;2023-06-22T00:33:03;96936.25;;;22.26;90.66
9139;BME280;4604;48.616;9.548;2023-06-22T00:35:33;96931.91;;;22.25;90.25
9139;BME280;4604;48.616;9.548;2023-06-22T00:38:00;96931.31;;;22.22;90.26
9139;BME280;4604;48.616;9.548;2023-06-22T00:40:29;96934.19;;;22.28;90.02
9139;BME280;4604;48.616;9.548;2023-06-22T00:42:56;96923.25;;;22.22;89.11
9139;BME280;4604;48.616;9.548;2023-06-22T00:45:23;96929.22;;;22.11;90.18
9139;BME280;4604;48.616;9.548;2023-06-22T00:47:52;96922.88;;;21.99;90.79
9139;BME280;4604;48.616;9.548;2023-06-22T00:50:20;96927.06;;;21.75;92.90
9139;BME280;4604;48.616;9.548;2023-06-22T00:52:51;96933.28;;;21.69;94.07
9139;BME280;4604;48.616;9.548;2023-06-22T00:55:18;96926.25;;;21.68;93.94
9139;BME280;4604;48.616;9.548;2023-06-22T00:57:46;96920.06;;;21.67;94.63
9139;BME280;4604;48.616;9.548;2023-06-22T01:00:13;96913.25;;;21.65;94.96
9139;BME280;4604;48.616;9.548;2023-06-22T01:02:41;96917.19;;;21.62;95.62
9139;BME280;4604;48.616;9.548;2023-06-22T01:05:12;96918.41;;;21.59;95.85
9139;BME280;4604;48.616;9.548;2023-06-22T01:07:42;96916.34;;;21.55;96.67
9139;BME280;4604;48.616;9.548;2023-06-22T01:10:16;96919.28;;;21.53;97.73
9139;BME280;4604;48.616;9.548;2023-06-22T01:12:48;96918.25;;;21.41;98.42
9139;BME280;4604;48.616;9.548;2023-06-22T01:15:23;96920.09;;;21.41;99.23
9139;BME280;4604;48.616;9.548;2023-06-22T01:17:52;96927.72;;;21.30;100.00
9139;BME280;4604;48.616;9.548;2023-06-22T01:20:21;96928.75;;;21.23;100.00
9139;BME280;4604;48.616;9.548;2023-06-22T01:23:01;96929.16;;;21.13;100.00
9139;BME280;4604;48.616;9.548;2023-06-22T01:25:36;96916.56;;;21.07;100.00
9139;BME280;4604;48.616;9.548;2023-06-22T01:28:19;96925.03;;;20.97;100.00
9139;BME280;4604;48.616;9.548;2023-06-22T01:30:51;96920.28;;;20.92;100.00
9139;BME280;4604;48.616;9.548;2023-06-22T01:33:29;96921.28;;;20.85;100.00
9139;BME280;4604;48.616;9.548;2023-06-22T01:35:57;96922.13;;;20.85;100.00
9139;BME280;4604;48.616;9.548;2023-06-22T01:38:25;96927.06;;;20.88;100.00
9139;BME280;4604;48.616;9.548;2023-06-22T01:40:52;96942.53;;;20.86;100.00
9139;BME280;4604;48.616;9.548;2023-06-22T01:43:21;96945.84;;;20.82;100.00
9139;BME280;4604;48.616;9.548;2023-06-22T01:45:50;96951.97;;;20.62;100.00
9139;BME280;4604;48.616;9.548;2023-06-22T01:48:17;96957.13;;;20.57;100.00
9139;BME280;4604;48.616;9.548;2023-06-22T01:50:44;96942.00;;;20.49;100.00
9139;BME280;4604;48.616;9.548;2023-06-22T01:53:11;96957.94;;;20.58;100.00
9139;BME280;4604;48.616;9.548;2023-06-22T01:55:38;96947.78;;;20.53;100.00
9139;BME280;4604;48.616;9.548;2023-06-22T01:58:05;96953.44;;;20.58;100.00
9139;BME280;4604;48.616;9.548;2023-06-22T02:00:33;96951.97;;;20.56;100.00
9139;BME280;4604;48.616;9.548;2023-06-22T02:03:08;96949.72;;;20.59;100.00
9139;BME280;4604;48.616;9.548;2023-06-22T02:05:39;96953.66;;;20.63;100.00
9139;BME280;4604;48.616;9.548;2023-06-22T02:08:09;96948.47;;;20.62;100.00
9139;BME280;4604;48.616;9.548;2023-06-22T02:10:38;96947.22;;;20.58;100.00
9139;BME280;4604;48.616;9.548;2023-06-22T02:13:08;96933.78;;;20.51;100.00
9139;BME280;4604;48.616;9.548;2023-06-22T02:15:36;96937.69;;;20.48;100.00
9139;BME280;4604;48.616;9.548;2023-06-22T02:18:05;96933.13;;;20.42;100.00
9139;BME280;4604;48.616;9.548;2023-06-22T02:20:32;96938.06;;;20.45;100.00
9139;BME280;4604;48.616;9.548;2023-06-22T02:22:58;96936.63;;;20.43;100.00
9139;BME280;4604;48.616;9.548;2023-06-22T02:25:25;96939.72;;;20.40;100.00
9139;BME280;4604;48.616;9.548;2023-06-22T02:27:51;96927.31;;;20.32;100.00
9139;BME280;4604;48.616;9.548;2023-06-22T02:30:18;96916.97;;;20.22;100.00
9139;BME280;4604;48.616;9.548;2023-06-22T02:32:45;96913.00;;;20.12;100.00
9139;BME280;4604;48.616;9.548;2023-06-22T02:35:13;96929.06;;;20.12;100.00
9139;BME280;4604;48.616;9.548;2023-06-22T02:37:40;96929.44;;;20.02;100.00
9139;BME280;4604;48.616;9.548;2023-06-22T02:40:08;96934.19;;;20.00;100.00
9139;BME280;4604;48.616;9.548;2023-06-22T02:42:36;96949.41;;;19.99;100.00
9139;BME280;4604;48.616;9.548;2023-06-22T02:45:03;96943.06;;;20.00;100.00
9139;BME280;4604;48.616;9.548;2023-06-22T02:47:30;96950.50;;;20.05;100.00
9139;BME280;4604;48.616;9.548;2023-06-22T02:49:57;96947.59;;;20.00;100.00
9139;BME280;4604;48.616;9.548;2023-06-22T02:52:25;96945.09;;;19.98;100.00
9139;BME280;4604;48.616;9.548;2023-06-22T02:54:52;96951.88;;;19.94;100.00
9139;BME280;4604;48.616;9.548;2023-06-22T02:57:18;96940.09;;;19.88;100.00
9139;BME280;4604;48.616;9.548;2023-06-22T02:59:45;96942.00;;;19.95;100.00
9139;BME280;4604;48.616;9.548;2023-06-22T03:02:11;96950.03;;;19.95;100.00
9139;BME280;4604;48.616;9.548;2023-06-22T03:04:38;96942.19;;;19.93;100.00
9139;BME280;4604;48.616;9.548;2023-06-22T03:07:05;96935.16;;;19.85;100.00
9139;BME280;4604;48.616;9.548;2023-06-22T03:09:33;96936.38;;;19.83;100.00
9139;BME280;4604;48.616;9.548;2023-06-22T03:12:00;96909.94;;;19.73;100.00
9139;BME280;4604;48.616;9.548;2023-06-22T03:14:27;96929.16;;;19.83;100.00
9139;BME280;4604;48.616;9.548;2023-06-22T03:16:54;96926.25;;;19.78;100.00
9139;BME280;4604;48.616;9.548;2023-06-22T03:19:25;96916.94;;;19.74;100.00
9139;BME280;4604;48.616;9.548;2023-06-22T03:21:55;96912.63;;;19.73;100.00
9139;BME280;4604;48.616;9.548;2023-06-22T03:24:22;96910.53;;;19.69;100.00
9139;BME280;4604;48.616;9.548;2023-06-22T03:26:50;96906.00;;;19.69;100.00
9139;BME280;4604;48.616;9.548;2023-06-22T03:29:16;96897.97;;;19.69;100.00
9139;BME280;4604;48.616;9.548;2023-06-22T03:31:43;96905.81;;;19.71;100.00
9139;BME280;4604;48.616;9.548;2023-06-22T03:34:10;96900.66;;;19.69;100.00
9139;BME280;4604;48.616;9.548;2023-06-22T03:36:36;96897.97;;;19.69;100.00
9139;BME280;4604;48.616;9.548;2023-06-22T03:39:03;96886.59;;;19.67;100.00
9139;BME280;4604;48.616;9.548;2023-06-22T03:41:29;96899.97;;;19.67;100.00
9139;BME280;4604;48.616;9.548;2023-06-22T03:43:57;96890.34;;;19.73;100.00
9139;BME280;4604;48.616;9.548;2023-06-22T03:46:24;96886.84;;;19.72;100.00
9139;BME280;4604;48.616;9.548;2023-06-22T03:48:51;96890.44;;;19.58;100.00
9139;BME280;4604;48.616;9.548;2023-06-22T03:51:17;96887.78;;;19.58;100.00
9139;BME280;4604;48.616;9.548;2023-06-22T03:53:44;96892.97;;;19.66;100.00
9139;BME280;4604;48.616;9.548;2023-06-22T03:56:11;96889.84;;;19.62;100.00
9139;BME280;4604;48.616;9.548;2023-06-22T03:58:38;96898.06;;;19.54;100.00
9139;BME280;4604;48.616;9.548;2023-06-22T04:01:09;96900.06;;;19.45;100.00
9139;BME280;4604;48.616;9.548;2023-06-22T04:03:37;96899.09;;;19.53;100.00
9139;BME280;4604;48.616;9.548;2023-06-22T04:06:03;96900.78;;;19.61;100.00
9139;BME280;4604;48.616;9.548;2023-06-22T04:08:30;96896.34;;;19.68;100.00
9139;BME280;4604;48.616;9.548;2023-06-22T04:10:57;96891.25;;;19.86;100.00
9139;BME280;4604;48.616;9.548;2023-06-22T04:13:24;96881.38;;;19.87;100.00
9139;BME280;4604;48.616;9.548;2023-06-22T04:15:50;96890.06;;;19.96;100.00
9139;BME280;4604;48.616;9.548;2023-06-22T04:18:18;96885.97;;;20.00;100.00
9139;BME280;4604;48.616;9.548;2023-06-22T04:20:45;96876.13;;;20.14;100.00
9139;BME280;4604;48.616;9.548;2023-06-22T04:23:12;96877.41;;;20.24;100.00
9139;BME280;4604;48.616;9.548;2023-06-22T04:25:39;96880.13;;;20.38;100.00
9139;BME280;4604;48.616;9.548;2023-06-22T04:28:06;96878.88;;;20.40;100.00
9139;BME280;4604;48.616;9.548;2023-06-22T04:30:40;96880.31;;;20.43;100.00
9139;BME280;4604;48.616;9.548;2023-06-22T04:33:12;96882.41;;;20.47;100.00
9139;BME280;4604;48.616;9.548;2023-06-22T04:35:40;96878.06;;;20.53;100.00
9139;BME280;4604;48.616;9.548;2023-06-22T04:38:07;96877.72;;;20.56;100.00
9139;BME280;4604;48.616;9.548;2023-06-22T04:40:34;96870.28;;;20.65;100.00
9139;BME280;4604;48.616;9.548;2023-06-22T04:43:00;96862.28;;;20.78;100.00
9139;BME280;4604;48.616;9.548;2023-06-22T04:45:29;96857.72;;;20.99;100.00
9139;BME280;4604;48.616;9.548;2023-06-22T04:47:55;96843.91;;;21.08;98.97
9139;BME280;4604;48.616;9.548;2023-06-22T04:50:22;96844.28;;;21.25;96.85
9139;BME280;4604;48.616;9.548;2023-06-22T04:52:50;96845.50;;;21.36;96.31
9139;BME280;4604;48.616;9.548;2023-06-22T04:55:20;96843.66;;;21.43;95.12
9139;BME280;4604;48.616;9.548;2023-06-22T04:57:47;96833.34;;;21.53;93.79
9139;BME280;4604;48.616;9.548;2023-06-22T05:00:15;96844.66;;;21.62;93.11
9139;BME280;4604;48.616;9.548;2023-06-22T05:02:43;96827.47;;;21.76;90.79
9139;BME280;4604;48.616;9.548;2023-06-22T05:05:11;96818.13;;;21.86;88.52
9139;BME280;4604;48.616;9.548;2023-06-22T05:07:41;96827.16;;;21.98;87.94
9139;BME280;4604;48.616;9.548;2023-06-22T05:10:11;96814.72;;;22.04;88.37
9139;BME280;4604;48.616;9.548;2023-06-22T05:12:39;96822.34;;;22.07;86.63
9139;BME280;4604;48.616;9.548;2023-06-22T05:15:07;96819.81;;;22.18;86.36
9139;BME280;4604;48.616;9.548;2023-06-22T05:17:34;96812.91;;;22.36;85.75
9139;BME280;4604;48.616;9.548;2023-06-22T05:20:01;96807.28;;;22.44;84.69
9139;BME280;4604;48.616;9.548;2023-06-22T05:22:31;96804.06;;;22.60;82.51
9139;BME280;4604;48.616;9.548;2023-06-22T05:24:58;96811.47;;;22.65;80.84
9139;BME280;4604;48.616;9.548;2023-06-22T05:27:26;96800.63;;;22.78;79.20
9139;BME280;4604;48.616;9.548;2023-06-22T05:29:53;96804.19;;;22.97;75.38
9139;BME280;4604;48.616;9.548;2023-06-22T05:32:19;96807.75;;;22.91;77.44
9139;BME280;4604;48.616;9.548;2023-06-22T05:34:46;96791.94;;;23.01;76.72
9139;BME280;4604;48.616;9.548;2023-06-22T05:37:13;96792.44;;;23.17;75.88
9139;BME280;4604;48.616;9.548;2023-06-22T05:39:39;96796.09;;;23.41;71.55
9139;BME280;4604;48.616;9.548;2023-06-22T05:42:06;96795.88;;;23.42;71.88
9139;BME280;4604;48.616;9.548;2023-06-22T05:44:35;96805.53;;;23.50;70.13
9139;BME280;4604;48.616;9.548;2023-06-22T05:47:03;96806.44;;;23.62;68.29
9139;BME280;4604;48.616;9.548;2023-06-22T05:49:29;96796.72;;;23.61;68.58
9139;BME280;4604;48.616;9.548;2023-06-22T05:51:58;96795.91;;;23.79;68.38
9139;BME280;4604;48.616;9.548;2023-06-22T05:54:24;96798.97;;;23.83;67.03
9139;BME280;4604;48.616;9.548;2023-06-22T05:56:51;96795.28;;;23.96;65.39
9139;BME280;4604;48.616;9.548;2023-06-22T05:59:18;96796.91;;;23.97;66.93
9139;BME280;4604;48.616;9.548;2023-06-22T06:01:46;96813.63;;;24.05;66.61
9139;BME280;4604;48.616;9.548;2023-06-22T06:04:16;96805.19;;;24.13;64.74
9139;BME280;4604;48.616;9.548;2023-06-22T06:06:42;96795.41;;;24.19;64.54
9139;BME280;4604;48.616;9.548;2023-06-22T06:09:09;96811.97;;;24.34;65.03
9139;BME280;4604;48.616;9.548;2023-06-22T06:11:37;96801.66;;;24.31;65.68
9139;BME280;4604;48.616;9.548;2023-06-22T06:14:03;96803.09;;;24.46;64.94
9139;BME280;4604;48.616;9.548;2023-06-22T06:16:30;96797.88;;;24.51;66.11
9139;BME280;4604;48.616;9.548;2023-06-22T06:18:58;96792.91;;;24.48;67.20
9139;BME280;4604;48.616;9.548;2023-06-22T06:21:24;96796.25;;;24.73;64.80
9139;BME280;4604;48.616;9.548;2023-06-22T06:23:51;96798.38;;;24.71;64.52
9139;BME280;4604;48.616;9.548;2023-06-22T06:26:18;96812.44;;;24.73;65.20
9139;BME280;4604;48.616;9.548;2023-06-22T06:28:53;96807.28;;;24.84;65.67
9139;BME280;4604;48.616;9.548;2023-06-22T06:31:20;96808.16;;;25.08;66.06
9139;BME280;4604;48.616;9.548;2023-06-22T06:33:46;96798.53;;;25.12;64.90
9139;BME280;4604;48.616;9.548;2023-06-22T06:36:14;96797.69;;;25.11;65.78
9139;BME280;4604;48.616;9.548;2023-06-22T06:38:41;96798.28;;;25.13;66.75
9139;BME280;4604;48.616;9.548;2023-06-22T06:41:08;96798.31;;;25.25;66.15
9139;BME280;4604;48.616;9.548;2023-06-22T06:43:34;96799.47;;;25.29;66.33
9139;BME280;4604;48.616;9.548;2023-06-22T06:46:01;96797.00;;;25.51;63.82
9139;BME280;4604;48.616;9.548;2023-06-22T06:48:28;96799.69;;;25.51;64.54
9139;BME280;4604;48.616;9.548;2023-06-22T06:50:55;96792.03;;;25.60;64.36
9139;BME280;4604;48.616;9.548;2023-06-22T06:53:23;96789.47;;;25.53;64.52
9139;BME280;4604;48.616;9.548;2023-06-22T06:55:49;96797.44;;;25.60;65.31
9139;BME280;4604;48.616;9.548;2023-06-22T06:58:16;96793.75;;;25.78;63.74
9139;BME280;4604;48.616;9.548;2023-06-22T07:00:42;96796.56;;;25.83;63.86
9139;BME280;4604;48.616;9.548;2023-06-22T07:03:09;96805.13;;;25.80;64.46
9139;BME280;4604;48.616;9.548;2023-06-22T07:05:36;96795.81;;;25.99;64.14
9139;BME280;4604;48.616;9.548;2023-06-22T07:08:03;96789.47;;;26.05;63.57
9139;BME280;4604;48.616;9.548;2023-06-22T07:10:31;96800.47;;;26.16;61.42
9139;BME280;4604;48.616;9.548;2023-06-22T07:12:57;96802.22;;;26.22;62.29
9139;BME280;4604;48.616;9.548;2023-06-22T07:15:24;96796.91;;;26.27;61.30
9139;BME280;4604;48.616;9.548;2023-06-22T07:17:51;96807.19;;;26.42;60.40
9139;BME280;4604;48.616;9.548;2023-06-22T07:20:17;96809.16;;;26.46;59.76
9139;BME280;4604;48.616;9.548;2023-06-22T07:22:45;96811.13;;;26.51;58.63
9139;BME280;4604;48.616;9.548;2023-06-22T07:25:11;96817.97;;;26.54;58.64
9139;BME280;4604;48.616;9.548;2023-06-22T07:27:44;96811.19;;;26.68;58.98
9139;BME280;4604;48.616;9.548;2023-06-22T07:30:12;96806.91;;;26.72;58.64
9139;BME280;4604;48.616;9.548;2023-06-22T07:32:40;96804.38;;;26.82;58.76
9139;BME280;4604;48.616;9.548;2023-06-22T07:35:07;96798.41;;;26.97;59.02
9139;BME280;4604;48.616;9.548;2023-06-22T07:37:34;96800.25;;;27.14;58.86
9139;BME280;4604;48.616;9.548;2023-06-22T07:40:01;96791.81;;;27.27;58.18
9139;BME280;4604;48.616;9.548;2023-06-22T07:42:31;96792.03;;;27.42;57.90
9139;BME280;4604;48.616;9.548;2023-06-22T07:45:00;96794.22;;;27.45;57.16
9139;BME280;4604;48.616;9.548;2023-06-22T07:47:27;96784.53;;;27.49;57.06
9139;BME280;4604;48.616;9.548;2023-06-22T07:49:54;96772.44;;;27.57;56.50
9139;BME280;4604;48.616;9.548;2023-06-22T07:52:23;96766.38;;;27.72;56.66
9139;BME280;4604;48.616;9.548;2023-06-22T07:54:50;96755.59;;;27.77;56.60
9139;BME280;4604;48.616;9.548;2023-06-22T07:57:16;96764.66;;;27.83;55.94
9139;BME280;4604;48.616;9.548;2023-06-22T07:59:43;96760.53;;;28.02;56.72
9139;BME280;4604;48.616;9.548;2023-06-22T08:02:12;96754.59;;;28.05;55.67
9139;BME280;4604;48.616;9.548;2023-06-22T08:04:39;96747.94;;;28.18;56.17
9139;BME280;4604;48.616;9.548;2023-06-22T08:07:06;96735.69;;;28.15;57.09
9139;BME280;4604;48.616;9.548;2023-06-22T08:09:33;96743.25;;;28.41;53.08
9139;BME280;4604;48.616;9.548;2023-06-22T08:11:59;96744.69;;;28.21;54.26
9139;BME280;4604;48.616;9.548;2023-06-22T08:14:26;96744.50;;;28.28;54.60
9139;BME280;4604;48.616;9.548;2023-06-22T08:16:53;96724.19;;;28.35;53.34
9139;BME280;4604;48.616;9.548;2023-06-22T08:19:21;96720.63;;;28.57;51.41
9139;BME280;4604;48.616;9.548;2023-06-22T08:21:48;96719.78;;;28.51;52.93
9139;BME280;4604;48.616;9.548;2023-06-22T08:24:14;96724.91;;;28.53;53.86
9139;BME280;4604;48.616;9.548;2023-06-22T08:26:41;96720.81;;;28.50;53.29
9139;BME280;4604;48.616;9.548;2023-06-22T08:29:07;96724.38;;;28.51;52.65
9139;BME280;4604;48.616;9.548;2023-06-22T08:31:34;96718.09;;;28.83;51.64
9139;BME280;4604;48.616;9.548;2023-06-22T08:34:01;96713.81;;;28.97;50.64
9139;BME280;4604;48.616;9.548;2023-06-22T08:36:29;96716.75;;;28.85;51.39
9139;BME280;4604;48.616;9.548;2023-06-22T08:38:58;96713.81;;;28.97;51.08
9139;BME280;4604;48.616;9.548;2023-06-22T08:41:26;96724.97;;;28.95;51.63
9139;BME280;4604;48.616;9.548;2023-06-22T08:43:53;96738.47;;;28.80;51.25
9139;BME280;4604;48.616;9.548;2023-06-22T08:46:19;96764.69;;;28.64;52.33
9139;BME280;4604;48.616;9.548;2023-06-22T08:48:48;96770.78;;;28.81;52.09
9139;BME280;4604;48.616;9.548;2023-06-22T08:51:15;96777.34;;;28.86;51.51
9139;BME280;4604;48.616;9.548;2023-06-22T08:53:43;96798.13;;;29.02;51.38
9139;BME280;4604;48.616;9.548;2023-06-22T08:56:11;96810.84;;;28.96;51.60
9139;BME280;4604;48.616;9.548;2023-06-22T08:58:37;96826.41;;;28.74;52.02
9139;BME280;4604;48.616;9.548;2023-06-22T09:01:04;96838.06;;;28.69;52.94
9139;BME280;4604;48.616;9.548;2023-06-22T09:03:30;96843.41;;;28.91;51.81
9139;BME280;4604;48.616;9.548;2023-06-22T09:05:58;96840.09;;;28.84;52.25
9139;BME280;4604;48.616;9.548;2023-06-22T09:08:24;96841.53;;;28.97;52.45
9139;BME280;4604;48.616;9.548;2023-06-22T09:10:52;96838.00;;;28.96;52.67
9139;BME280;4604;48.616;9.548;2023-06-22T09:13:19;96843.00;;;28.77;54.21
9139;BME280;4604;48.616;9.548;2023-06-22T09:15:47;96838.28;;;28.41;55.30
9139;BME280;4604;48.616;9.548;2023-06-22T09:18:14;96837.41;;;28.57;55.68
9139;BME280;4604;48.616;9.548;2023-06-22T09:20:41;96817.31;;;28.36;55.55
9139;BME280;4604;48.616;9.548;2023-06-22T09:23:08;96836.75;;;28.77;54.55
9139;BME280;4604;48.616;9.548;2023-06-22T09:25:34;96829.72;;;29.08;55.19
9139;BME280;4604;48.616;9.548;2023-06-22T09:28:03;96824.47;;;29.34;53.00
9139;BME280;4604;48.616;9.548;2023-06-22T09:30:29;96818.66;;;29.62;53.52
9139;BME280;4604;48.616;9.548;2023-06-22T09:32:56;96817.56;;;29.63;51.75
9139;BME280;4604;48.616;9.548;2023-06-22T09:35:23;96814.63;;;29.70;51.10
9139;BME280;4604;48.616;9.548;2023-06-22T09:37:49;96808.03;;;29.61;51.59
9139;BME280;4604;48.616;9.548;2023-06-22T09:40:16;96789.88;;;29.72;52.44
9139;BME280;4604;48.616;9.548;2023-06-22T09:42:42;96770.84;;;29.72;52.11
9139;BME280;4604;48.616;9.548;2023-06-22T09:45:10;96773.56;;;29.72;51.74
9139;BME280;4604;48.616;9.548;2023-06-22T09:47:37;96771.75;;;29.93;51.83
9139;BME280;4604;48.616;9.548;2023-06-22T09:50:04;96778.81;;;29.89;51.51
9139;BME280;4604;48.616;9.548;2023-06-22T09:52:31;96779.31;;;29.75;52.28
9139;BME280;4604;48.616;9.548;2023-06-22T09:54:58;96779.63;;;29.89;52.96
9139;BME280;4604;48.616;9.548;2023-06-22T09:57:24;96774.25;;;30.10;52.38
9139;BME280;4604;48.616;9.548;2023-06-22T09:59:51;96785.41;;;30.13;52.15
9139;BME280;4604;48.616;9.548;2023-06-22T10:02:19;96771.22;;;30.06;52.26
9139;BME280;4604;48.616;9.548;2023-06-22T10:04:45;96775.31;;;30.08;51.95
9139;BME280;4604;48.616;9.548;2023-06-22T10:07:12;96769.88;;;30.03;51.72
9139;BME280;4604;48.616;9.548;2023-06-22T10:09:39;96775.19;;;30.46;51.25
9139;BME280;4604;48.616;9.548;2023-06-22T10:12:06;96774.63;;;30.49;51.12
9139;BME280;4604;48.616;9.548;2023-06-22T10:14:33;96772.72;;;30.39;51.54
9139;BME280;4604;48.616;9.548;2023-06-22T10:16:59;96765.38;;;30.65;51.07
9139;BME280;4604;48.616;9.548;2023-06-22T10:19:27;96767.81;;;30.82;50.46
9139;BME280;4604;48.616;9.548;2023-06-22T10:21:54;96753.66;;;31.01;50.11
9139;BME280;4604;48.616;9.548;2023-06-22T10:24:21;96758.59;;;30.88;50.81
9139;BME280;4604;48.616;9.548;2023-06-22T10:26:47;96757.50;;;30.95;49.79
9139;BME280;4604;48.616;9.548;2023-06-22T10:29:14;96757.19;;;30.76;49.60
9139;BME280;4604;48.616;9.548;2023-06-22T10:31:41;96755.25;;;30.50;50.26
9139;BME280;4604;48.616;9.548;2023-06-22T10:34:08;96749.28;;;30.74;50.38
9139;BME280;4604;48.616;9.548;2023-06-22T10:36:36;96746.03;;;30.98;51.25
9139;BME280;4604;48.616;9.548;2023-06-22T10:39:02;96743.53;;;31.27;49.97
9139;BME280;4604;48.616;9.548;2023-06-22T10:41:29;96748.97;;;31.32;49.61
9139;BME280;4604;48.616;9.548;2023-06-22T10:43:56;96749.22;;;31.41;48.52
9139;BME280;4604;48.616;9.548;2023-06-22T10:46:24;96743.78;;;31.46;48.39
9139;BME280;4604;48.616;9.548;2023-06-22T10:48:50;96742.38;;;31.59;47.95
9139;BME280;4604;48.616;9.548;2023-06-22T10:51:19;96736.84;;;31.74;47.17
9139;BME280;4604;48.616;9.548;2023-06-22T10:53:47;96723.47;;;31.77;47.93
9139;BME280;4604;48.616;9.548;2023-06-22T10:56:14;96718.22;;;31.86;47.18
9139;BME280;4604;48.616;9.548;2023-06-22T10:58:40;96723.13;;;31.84;47.11
9139;BME280;4604;48.616;9.548;2023-06-22T11:01:07;96706.75;;;31.84;46.34
9139;BME280;4604;48.616;9.548;2023-06-22T11:03:34;96709.22;;;31.86;47.37
9139;BME280;4604;48.616;9.548;2023-06-22T11:06:00;96721.38;;;32.09;45.97
9139;BME280;4604;48.616;9.548;2023-06-22T11:08:27;96713.81;;;32.01;46.33
9139;BME280;4604;48.616;9.548;2023-06-22T11:10:55;96711.41;;;31.84;46.76
9139;BME280;4604;48.616;9.548;2023-06-22T11:13:21;96704.09;;;31.74;47.08
9139;BME280;4604;48.616;9.548;2023-06-22T11:15:48;96711.69;;;31.82;47.03
9139;BME280;4604;48.616;9.548;2023-06-22T11:18:15;96715.25;;;31.83;47.36
9139;BME280;4604;48.616;9.548;2023-06-22T11:20:42;96714.81;;;31.55;47.47
9139;BME280;4604;48.616;9.548;2023-06-22T11:23:08;96719.72;;;31.58;47.03
9139;BME280;4604;48.616;9.548;2023-06-22T11:25:37;96719.09;;;31.76;46.84
9139;BME280;4604;48.616;9.548;2023-06-22T11:28:05;96716.19;;;32.12;46.43
9139;BME280;4604;48.616;9.548;2023-06-22T11:30:31;96723.66;;;32.36;46.17
9139;BME280;4604;48.616;9.548;2023-06-22T11:32:59;96720.66;;;32.37;45.67
9139;BME280;4604;48.616;9.548;2023-06-22T11:35:26;96719.44;;;32.19;45.35
9139;BME280;4604;48.616;9.548;2023-06-22T11:37:52;96708.81;;;32.52;48.58
9139;BME280;4604;48.616;9.548;2023-06-22T11:40:21;96711.19;;;32.64;46.80
9139;BME280;4604;48.616;9.548;2023-06-22T11:42:48;96702.19;;;32.64;44.85
9139;BME280;4604;48.616;9.548;2023-06-22T11:45:17;96695.03;;;32.28;45.48
9139;BME280;4604;48.616;9.548;2023-06-22T11:47:45;96687.56;;;32.44;44.77
9139;BME280;4604;48.616;9.548;2023-06-22T11:50:12;96684.28;;;32.42;45.79
9139;BME280;4604;48.616;9.548;2023-06-22T11:52:38;96686.44;;;32.50;45.79
9139;BME280;4604;48.616;9.548;2023-06-22T11:55:06;96699.34;;;32.39;46.14
9139;BME280;4604;48.616;9.548;2023-06-22T11:57:33;96698.69;;;32.53;45.97
9139;BME280;4604;48.616;9.548;2023-06-22T12:00:00;96710.25;;;32.39;46.21
9139;BME280;4604;48.616;9.548;2023-06-22T12:02:33;96699.69;;;32.28;46.24
9139;BME280;4604;48.616;9.548;2023-06-22T12:04:59;96696.69;;;32.29;47.19
9139;BME280;4604;48.616;9.548;2023-06-22T12:07:29;96680.69;;;32.47;46.53
9139;BME280;4604;48.616;9.548;2023-06-22T12:09:56;96670.34;;;32.44;46.35
9139;BME280;4604;48.616;9.548;2023-06-22T12:12:25;96661.63;;;32.41;47.84
9139;BME280;4604;48.616;9.548;2023-06-22T12:14:52;96657.53;;;32.73;46.75
9139;BME280;4604;48.616;9.548;2023-06-22T12:17:18;96650.84;;;32.84;46.51
9139;BME280;4604;48.616;9.548;2023-06-22T12:19:46;96660.97;;;32.84;45.43
9139;BME280;4604;48.616;9.548;2023-06-22T12:22:13;96668.38;;;32.83;45.43
9139;BME280;4604;48.616;9.548;2023-06-22T12:24:39;96665.44;;;32.75;46.39
9139;BME280;4604;48.616;9.548;2023-06-22T12:27:08;96671.63;;;32.86;45.25
9139;BME280;4604;48.616;9.548;2023-06-22T12:29:35;96669.16;;;32.84;45.65
9139;BME280;4604;48.616;9.548;2023-06-22T12:32:02;96674.94;;;32.53;46.12
9139;BME280;4604;48.616;9.548;2023-06-22T12:34:29;96682.66;;;32.41;46.97
9139;BME280;4604;48.616;9.548;2023-06-22T12:36:57;96705.22;;;32.17;46.50
9139;BME280;4604;48.616;9.548;2023-06-22T12:39:23;96700.13;;;32.06;46.26
9139;BME280;4604;48.616;9.548;2023-06-22T12:41:50;96710.47;;;32.09;45.70
9139;BME280;4604;48.616;9.548;2023-06-22T12:44:17;96705.22;;;32.17;45.52
9139;BME280;4604;48.616;9.548;2023-06-22T12:46:43;96708.56;;;32.09;47.01
9139;BME280;4604;48.616;9.548;2023-06-22T12:49:10;96706.56;;;31.70;48.48
9139;BME280;4604;48.616;9.548;2023-06-22T12:51:39;96708.44;;;31.80;47.90
9139;BME280;4604;48.616;9.548;2023-06-22T12:54:07;96708.50;;;31.65;48.76
9139;BME280;4604;48.616;9.548;2023-06-22T12:56:34;96717.59;;;31.45;48.76
9139;BME280;4604;48.616;9.548;2023-06-22T12:59:01;96719.53;;;31.39;49.40
9139;BME280;4604;48.616;9.548;2023-06-22T13:01:28;96725.78;;;31.45;49.82
9139;BME280;4604;48.616;9.548;2023-06-22T13:03:55;96718.38;;;31.50;50.46
9139;BME280;4604;48.616;9.548;2023-06-22T13:06:22;96707.41;;;31.66;49.43
9139;BME280;4604;48.616;9.548;2023-06-22T13:08:48;96698.44;;;31.55;49.71
9139;BME280;4604;48.616;9.548;2023-06-22T13:11:16;96702.50;;;31.68;50.28
9139;BME280;4604;48.616;9.548;2023-06-22T13:13:44;96705.78;;;31.60;50.16
9139;BME280;4604;48.616;9.548;2023-06-22T13:16:11;96704.66;;;31.71;50.68
9139;BME280;4604;48.616;9.548;2023-06-22T13:18:38;96703.50;;;31.87;47.86
9139;BME280;4604;48.616;9.548;2023-06-22T13:21:05;96698.06;;;31.77;48.17